Flight Track Log - Related Links

Times and Time Zones

All times are in EDT time to prevent confusion due to time zone crossing. See the UAL4401 flight status page for this flight to view local times or setup timezone preferences in your user account.

Time Position Orientation Groundspeed Altitude Reporting Facility
EDT Latitude Longitude Course Direction KTS MPH feet Rate Location/Type
Fri 09:12:05 AM 39.3000 -94.7333 199° South 159 183 1,600  Level Kansas City TRACON
Fri 09:12:55 AM 39.2869 -94.7706 246° West 161 185 3,100 1,838 Climbing Kansas City Center
Fri 09:13:56 AM 39.2389 -94.8103 213° Southwest 244 281 5,000 2,508 Climbing Kansas City Center
Fri 09:14:57 AM 39.1508 -94.8317 191° South 285 328 8,200 2,806 Climbing Kansas City Center
Fri 09:16:00 AM 38.8712 -94.8703 199° South  Level FlightAware Approximate
Fri 09:16:00 AM 39.0719 -94.8511 191° South 297 342 10,800  Level Kansas City Center
Fri 09:17:00 AM 38.7856 -94.9083 199° South  Level FlightAware Approximate
Fri 09:17:02 AM 38.9844 -94.8728 191° South 337 388 11,600  Level Kansas City Center
Fri 09:18:03 AM 38.8717 -94.9000 191° South 367 422 13,700 1,934 Climbing Kansas City Center
Fri 09:19:03 AM 38.7731 -94.9233 190° South 373 429 15,500 1,707 Climbing Kansas City Center
Fri 09:20:06 AM 38.6572 -94.9603 194° South 381 438 17,200 1,548 Climbing Kansas City Center
Fri 09:21:07 AM 38.5592 -94.9942 195° South 380 437 18,700 1,403 Climbing Kansas City Center
Fri 09:22:10 AM 38.4581 -95.0286 195° South 389 448 20,100 1,548 Climbing Kansas City Center
Fri 09:23:11 AM 38.3392 -95.0711 196° South 397 457 21,900 1,820 Climbing Kansas City Center
Fri 09:24:12 AM 38.2408 -95.1036 195° South 388 447 23,800 2,032 Climbing Kansas City Center
Fri 09:25:15 AM 38.1286 -95.1428 195° South 375 432 26,100 1,694 Climbing Kansas City Center
Fri 09:26:16 AM 38.0350 -95.1747 195° South 364 419 27,300 1,623 Climbing Kansas City Center
Fri 09:27:17 AM 37.9300 -95.2114 195° South 358 412 29,400 1,770 Climbing Kansas City Center
Fri 09:28:18 AM 37.8378 -95.2458 196° South 349 402 30,900 1,392 Climbing Kansas City Center
Fri 09:29:22 AM 37.7461 -95.2753 194° South 341 392 32,300 1,200 Climbing Kansas City Center
Fri 09:30:23 AM 37.6556 -95.3061 195° South 338 389 33,400 885 Climbing Kansas City Center
Fri 09:31:24 AM 37.5628 -95.3358 194° South 341 392 34,100 774 Climbing Kansas City Center
Fri 09:32:27 AM 37.4678 -95.3664 194° South 349 402 35,000 919 Climbing Kansas City Center
Fri 09:33:28 AM 37.3553 -95.4050 195° South 348 400 36,000 496 Climbing Kansas City Center
Fri 09:34:28 AM 37.2600 -95.4364 195° South 352 405 36,000  Level Kansas City Center
Fri 09:35:32 AM 37.1589 -95.4697 195° South 367 422 36,000  Level Kansas City Center
Fri 09:36:32 AM 37.0536 -95.5050 195° South 384 442 36,000  Level Kansas City Center
Fri 09:37:34 AM 36.9442 -95.5406 195° South 400 460 36,000  Level Kansas City Center
Fri 09:38:35 AM 36.8336 -95.5783 195° South 409 471 36,000  Level Kansas City Center
Fri 09:39:38 AM 36.7203 -95.6156 195° South 417 480 36,000  Level Kansas City Center
Fri 09:40:40 AM 36.5925 -95.6572 195° South 427 491 36,000  Level Kansas City Center
Fri 09:41:41 AM 36.4772 -95.6961 195° South 428 493 36,000  Level Kansas City Center
Fri 09:42:43 AM 36.3631 -95.7331 195° South 426 490 36,000  Level Kansas City Center
Fri 09:43:46 AM 36.2436 -95.7725 195° South 423 487 36,000  Level Kansas City Center
Fri 09:44:47 AM 36.1314 -95.8103 195° South 421 484 36,000  Level Kansas City Center
Fri 09:45:47 AM 36.0189 -95.8500 196° South 420 483 36,000  Level Kansas City Center
Fri 09:46:51 AM 35.8847 -95.8969 196° South 417 480 36,000  Level Kansas City Center
Fri 09:47:52 AM 35.7722 -95.9367 196° South 418 481 36,000  Level Kansas City Center
Fri 09:48:55 AM 35.6603 -95.9750 196° South 418 481 36,000  Level Kansas City Center
Fri 09:49:39 AM 35.5653 -96.0075 196° South 415 478 36,000  Level Fort Worth Center
Fri 09:50:39 AM 35.4531 -96.0453 195° South 415 478 36,000  Level Fort Worth Center
Fri 09:51:39 AM 35.3431 -96.0850 196° South 415 478 36,000  Level Fort Worth Center
Fri 09:52:39 AM 35.2328 -96.1225 196° South 415 478 36,000  Level Fort Worth Center
Fri 09:53:39 AM 35.1225 -96.1597 195° South 415 478 36,000  Level Fort Worth Center
Fri 09:54:39 AM 35.0103 -96.1967 195° South 415 478 36,000  Level Fort Worth Center
Fri 09:55:39 AM 34.9003 -96.2364 196° South 415 478 36,000  Level Fort Worth Center
Fri 09:56:39 AM 34.7878 -96.2758 196° South 415 478 36,000  Level Fort Worth Center
Fri 09:57:39 AM 34.6733 -96.3128 195° South 415 478 36,000  Level Fort Worth Center
Fri 09:58:39 AM 34.5633 -96.3519 196° South 415 478 36,000  Level Fort Worth Center
Fri 09:59:39 AM 34.4489 -96.3911 196° South 415 478 36,000  Level Fort Worth Center
Fri 10:00:39 AM 34.3344 -96.4275 195° South 415 478 36,000  Level Fort Worth Center
Fri 10:01:39 AM 34.2219 -96.4667 196° South 415 478 36,000  Level Fort Worth Center
Fri 10:02:39 AM 34.1075 -96.5081 197° South 415 478 36,000  Level Fort Worth Center
Fri 10:03:39 AM 33.9992 -96.5417 194° South 409 471 36,000  Level Fort Worth Center
Fri 10:04:39 AM 33.8867 -96.5828 197° South 414 476 36,000  Level Fort Worth Center
Fri 10:05:39 AM 33.7744 -96.6189 195° South 419 482 36,000  Level Fort Worth Center
Fri 10:06:39 AM 33.6619 -96.6472 192° South 414 476 36,000  Level Fort Worth Center
Fri 10:07:39 AM 33.5575 -96.6433 178° South 414 476 36,000  Level Fort Worth Center
Fri 10:08:39 AM 33.4447 -96.6342 176° South 408 470 36,000  Level Fort Worth Center
Fri 10:09:39 AM 33.3297 -96.6253 176° South 414 476 36,000  Level Fort Worth Center
Fri 10:10:39 AM 33.2192 -96.6214 178° South 407 468 36,000  Level Fort Worth Center
Fri 10:11:39 AM 33.0958 -96.6150 178° South 407 468 36,000  Level Fort Worth Center
Fri 10:12:39 AM 32.9853 -96.6061 176° South 407 468 36,000  Level Fort Worth Center
Fri 10:13:39 AM 32.8975 -96.5994 176° South 407 468 36,000  Level Fort Worth Center
Fri 10:14:39 AM 32.7661 -96.5908 177° South 400 460 36,000  Level Fort Worth Center
Fri 10:15:39 AM 32.6533 -96.5844 177° South 405 466 36,000  Level Fort Worth Center
Fri 10:16:39 AM 32.5364 -96.5781 177° South 417 480 36,000  Level Fort Worth Center
Fri 10:17:39 AM 32.4150 -96.5694 177° South 430 495 36,000  Level Fort Worth Center
Fri 10:18:39 AM 32.3086 -96.5631 177° South 430 495 36,000  Level Fort Worth Center
Fri 10:19:39 AM 32.1917 -96.5567 177° South 425 489 36,000  Level Fort Worth Center
Fri 10:20:39 AM 32.0747 -96.5503 177° South 425 489 36,000  Level Fort Worth Center
Fri 10:21:39 AM 31.9578 -96.5417 176° South 425 489 36,000  Level Fort Worth Center
Fri 10:22:39 AM 31.8386 -96.5356 178° South 425 489 36,000 -305 Level Fort Worth Center
Fri 10:24:36 AM 31.6097 -96.5203 177° South 430 495 35,100 -939 Descending Houston Center
Fri 10:25:38 AM 31.4928 -96.5033 173° South 422 486 33,200 -1,887 Descending Houston Center
Fri 10:26:40 AM 31.3806 -96.4456 156° South 434 499 31,200 -1,935 Descending Houston Center
Fri 10:27:42 AM 31.2725 -96.3772 152° Southeast 437 503 29,200 -2,129 Descending Houston Center
Fri 10:28:44 AM 31.1403 -96.2936 152° Southeast 454 522 26,800 -2,129 Descending Houston Center
Fri 10:29:46 AM 31.0258 -96.2203 151° Southeast 462 532 24,800 -1,935 Descending Houston Center
Fri 10:30:48 AM 30.9156 -96.1514 152° Southeast 446 513 22,800 -1,935 Descending Houston Center
Fri 10:31:50 AM 30.8086 -96.0856 152° Southeast 432 497 20,800 -2,032 Descending Houston Center
Fri 10:32:52 AM 30.6933 -96.0128 151° Southeast 420 483 18,600 -2,147 Descending Houston Center
Fri 10:33:39 AM 30.6172 -95.9653 152° Southeast 403 464 16,900 -1,839 Descending Houston Center
Fri 10:33:54 AM 30.6136 -95.9625 146° Southeast 406 467 16,700 -2,769 Descending Houston Center
Fri 10:34:57 AM 30.4992 -95.8911 152° Southeast 392 451 13,300 -2,350 Descending Houston Center
Fri 10:35:54 AM 30.4164 -95.8261 146° Southeast 366 421 12,000 -696 Descending Houston Center
Fri 10:36:49 AM 30.3517 -95.7586 138° Southeast 333 383 12,000 -689 Level Houston Center
Fri 10:37:56 AM 30.2731 -95.6758 138° Southeast 339 390 10,600 -1,230 Descending Houston Center
Fri 10:38:51 AM 30.2128 -95.6128 138° Southeast 314 361 9,500 -1,070 Descending Houston Center
Fri 10:40:05 AM 30.1317 -95.5283 138° Southeast 321 369 8,300 -1,172 Descending Houston Center
Fri 10:40:59 AM 30.1061 -95.4542 112° Southeast 284 327 7,000 -1,131 Descending Houston Center
Fri 10:42:07 AM 30.1050 -95.3503 91° East 274 315 6,000 -439 Descending Houston Center
Fri 10:43:02 AM 30.1042 -95.2708 91° East 261 300 6,100 -885 Climbing Houston Center
Fri 10:44:09 AM 30.1050 -95.1886 89° East 232 267 4,200 -1,453 Descending Houston Center
Fri 10:45:10 AM 30.0458 -95.1619 159° South 255 293 3,000 -923 Descending Houston Center
Fri 10:46:06 AM 30.0075 -95.2028 223° Southwest 199 229 2,400 -643 Descending Houston Center

Login

Don't have an account? Register now (free) for customized features, flight alerts, and more!